Time;durP1;ratioP1;P1;durP2;ratioP2;P2;SDS_P1;SDS_P2;PMS_P1;PMS_P2;Temp;Humidity;BMP_temperature;BMP_pressure;BME280_temperature;BME280_humidity;BME280_pressure;Samples;Min_cycle;Max_cycle;Signal;HPM_P1;HPM_P2
2021/01/07 00:00:19;;;;;;;54.63;25.20;;;;;;;-0.02;86.85;99548.34;2076366;84;21096;-70
2021/01/07 00:03:21;;;;;;;55.83;26.25;;;;;;;-0.02;86.88;99535.30;2069265;84;21125;-70
2021/01/07 00:06:23;;;;;;;53.55;26.50;;;;;;;0.02;86.97;99536.37;2071376;84;21234;-70
2021/01/07 00:09:24;;;;;;;61.55;28.30;;;;;;;0.06;87.00;99540.41;2068587;84;21158;-77
2021/01/07 00:12:27;;;;;;;57.17;25.10;;;;;;;0.03;86.91;99533.67;2015605;85;21580;-70
2021/01/07 00:15:28;;;;;;;47.83;24.25;;;;;;;0.01;86.89;99531.64;2035021;85;21685;-70
2021/01/07 00:18:30;;;;;;;49.88;24.27;;;;;;;-0.02;86.85;99532.69;2038308;85;21141;-70
2021/01/07 00:21:31;;;;;;;49.65;25.62;;;;;;;-0.03;86.88;99533.65;2034171;85;21170;-71
2021/01/07 00:24:33;;;;;;;51.42;25.32;;;;;;;-0.04;86.91;99533.75;2031796;85;21765;-73
2021/01/07 00:27:35;;;;;;;51.02;24.35;;;;;;;-0.04;86.88;99535.87;2033890;85;21195;-70
2021/01/07 00:30:36;;;;;;;53.13;24.50;;;;;;;-0.05;86.89;99532.92;2014159;85;21570;-73
2021/01/07 00:33:38;;;;;;;50.05;25.92;;;;;;;-0.01;87.06;99538.26;2037087;85;21112;-76
2021/01/07 00:36:39;;;;;;;56.50;26.33;;;;;;;0.03;87.08;99534.97;2033479;85;21229;-72
2021/01/07 00:39:41;;;;;;;49.42;24.63;;;;;;;0.00;87.01;99544.33;2034170;85;21612;-69
2021/01/07 00:42:42;;;;;;;46.33;23.38;;;;;;;-0.03;86.99;99538.87;2029090;85;21148;-69
2021/01/07 00:45:43;;;;;;;42.55;21.25;;;;;;;-0.02;87.01;99535.30;2034022;85;21646;-69
2021/01/07 00:48:47;;;;;;;38.13;20.52;;;;;;;0.01;87.01;99534.73;2039321;85;21157;-69
2021/01/07 00:51:49;;;;;;;40.12;19.37;;;;;;;0.01;86.97;99538.16;2033146;85;21145;-70
2021/01/07 00:54:51;;;;;;;34.88;19.60;;;;;;;-0.01;86.99;99540.86;2031244;85;21113;-71
2021/01/07 00:57:53;;;;;;;40.12;20.72;;;;;;;-0.05;86.96;99539.92;2030721;85;21213;-71
2021/01/07 01:00:55;;;;;;;40.50;20.43;;;;;;;-0.07;86.98;99539.20;2031645;85;21206;-69
2021/01/07 01:03:56;;;;;;;35.35;18.73;;;;;;;-0.05;87.15;99545.14;2027974;85;21219;-70
2021/01/07 01:06:58;;;;;;;36.33;19.90;;;;;;;-0.08;87.13;99535.77;2033203;85;21579;-70
2021/01/07 01:10:00;;;;;;;37.75;19.55;;;;;;;-0.06;87.15;99543.45;2017357;86;21174;-69
2021/01/07 01:13:01;;;;;;;32.30;18.42;;;;;;;-0.05;87.17;99545.14;2028976;85;21179;-71
2021/01/07 01:16:03;;;;;;;34.63;17.70;;;;;;;-0.07;87.11;99545.72;2031653;85;21125;-70
2021/01/07 01:19:06;;;;;;;39.85;19.90;;;;;;;-0.04;87.15;99547.62;2034081;85;21135;-69
2021/01/07 01:22:07;;;;;;;36.00;19.17;;;;;;;0.02;87.25;99547.64;2033921;85;21235;-77
2021/01/07 01:25:10;;;;;;;38.00;20.65;;;;;;;0.05;87.23;99550.49;2034253;85;21175;-70
2021/01/07 01:28:12;;;;;;;38.10;19.32;;;;;;;0.08;87.23;99550.27;2031093;85;21169;-71
2021/01/07 01:31:13;;;;;;;36.40;20.05;;;;;;;0.07;87.17;99549.91;2028715;85;22480;-70
2021/01/07 01:34:19;;;;;;;37.45;18.87;;;;;;;0.02;87.07;99549.42;2035696;85;21193;-69
2021/01/07 01:37:21;;;;;;;34.20;18.10;;;;;;;-0.05;87.03;99557.70;2029520;85;21110;-70
2021/01/07 01:40:23;;;;;;;33.25;18.45;;;;;;;-0.06;87.12;99556.05;2030996;85;21168;-76
2021/01/07 01:43:24;;;;;;;30.70;18.40;;;;;;;-0.07;87.11;99561.36;2031272;85;21194;-70
2021/01/07 01:46:25;;;;;;;33.10;18.05;;;;;;;-0.02;87.21;99557.95;2039194;85;21122;-70
2021/01/07 01:49:27;;;;;;;33.30;18.75;;;;;;;0.01;87.23;99558.20;2029455;85;21150;-69
2021/01/07 01:52:31;;;;;;;33.85;18.92;;;;;;;0.04;87.23;99556.67;2033309;85;21527;-71
2021/01/07 01:55:32;;;;;;;31.70;17.52;;;;;;;0.02;87.18;99554.64;2033821;85;21248;-73
2021/01/07 01:58:35;;;;;;;35.98;18.12;;;;;;;-0.04;87.16;99559.36;2031139;85;21581;-70
2021/01/07 02:01:37;;;;;;;30.30;16.80;;;;;;;-0.09;87.11;99553.64;2033926;85;21141;-70
2021/01/07 02:04:39;;;;;;;31.10;17.10;;;;;;;-0.10;87.19;99544.16;2033584;85;21168;-70
2021/01/07 02:07:43;;;;;;;30.70;17.15;;;;;;;-0.11;87.18;99550.81;2030419;85;21620;-71
2021/01/07 02:10:47;;;;;;;30.25;17.00;;;;;;;-0.10;87.28;99554.59;2033975;85;21542;-72
2021/01/07 02:13:49;;;;;;;33.98;18.17;;;;;;;-0.07;87.25;99550.45;2038811;85;21790;-69
2021/01/07 02:16:50;;;;;;;30.90;17.98;;;;;;;-0.05;87.27;99541.23;2055268;85;21123;-75
2021/01/07 02:19:58;;;;;;;28.07;17.25;;;;;;;-0.05;87.26;99538.63;2052039;85;21102;-76
2021/01/07 02:23:00;;;;;;;29.45;16.65;;;;;;;-0.11;87.19;99542.51;2033076;84;21196;-69
2021/01/07 02:26:01;;;;;;;28.12;15.78;;;;;;;-0.15;87.24;99547.58;2070062;84;21145;-74
2021/01/07 02:29:03;;;;;;;26.40;15.15;;;;;;;-0.20;87.30;99543.16;2068392;84;21133;-70
2021/01/07 02:32:06;;;;;;;26.15;16.02;;;;;;;-0.23;87.30;99538.17;2068145;84;21240;-70
2021/01/07 02:35:09;;;;;;;25.08;13.98;;;;;;;-0.22;87.40;99542.47;2074051;84;21118;-77
2021/01/07 02:38:10;;;;;;;22.17;13.85;;;;;;;-0.19;87.48;99542.72;2069556;84;21656;-70
2021/01/07 02:41:12;;;;;;;20.97;13.35;;;;;;;-0.15;87.49;99535.84;2077951;84;21164;-70
2021/01/07 02:44:13;;;;;;;25.48;15.70;;;;;;;-0.13;87.42;99535.27;2073002;84;21197;-69
2021/01/07 02:47:15;;;;;;;25.20;14.38;;;;;;;-0.16;87.37;99532.88;2069434;84;21140;-69
2021/01/07 02:50:17;;;;;;;20.68;13.10;;;;;;;-0.18;87.37;99541.28;2044757;84;22016;-70
2021/01/07 02:53:18;;;;;;;20.17;12.95;;;;;;;-0.19;87.45;99537.02;2045587;85;21194;-70
2021/01/07 02:56:19;;;;;;;19.60;12.13;;;;;;;-0.16;87.47;99533.36;2047207;85;21532;-70
2021/01/07 02:59:21;;;;;;;16.87;11.63;;;;;;;-0.15;87.44;99532.41;2055556;84;21104;-69
2021/01/07 03:02:23;;;;;;;19.52;11.15;;;;;;;-0.15;87.42;99530.63;2055101;84;21133;-73
2021/01/07 03:05:24;;;;;;;21.68;12.05;;;;;;;-0.14;87.41;99537.52;2049442;85;21116;-69
2021/01/07 03:08:26;;;;;;;20.35;11.57;;;;;;;-0.12;87.44;99530.39;2045097;85;21090;-70
2021/01/07 03:11:27;;;;;;;21.93;12.65;;;;;;;-0.12;87.41;99529.57;2076716;84;21132;-70
2021/01/07 03:14:29;;;;;;;20.97;11.33;;;;;;;-0.15;87.40;99533.70;2071919;84;21197;-70
2021/01/07 03:17:30;;;;;;;21.82;12.60;;;;;;;-0.16;87.40;99536.80;2069124;84;21085;-71
2021/01/07 03:20:32;;;;;;;17.65;11.63;;;;;;;-0.18;87.41;99539.16;2058292;84;21131;-70
2021/01/07 03:23:33;;;;;;;21.73;11.10;;;;;;;-0.20;87.45;99536.64;2046865;84;21104;-70
2021/01/07 03:26:35;;;;;;;19.23;11.35;;;;;;;-0.21;87.51;99540.20;2067732;84;21161;-72
2021/01/07 03:29:36;;;;;;;17.92;11.50;;;;;;;-0.23;87.50;99542.08;2067978;84;21181;-72
2021/01/07 03:32:38;;;;;;;14.47;10.63;;;;;;;-0.23;87.52;99545.99;2069575;84;21171;-70
2021/01/07 03:35:39;;;;;;;16.12;10.30;;;;;;;-0.24;87.53;99539.13;2066641;84;21121;-71
2021/01/07 03:38:40;;;;;;;13.00;9.78;;;;;;;-0.23;87.59;99538.17;2070528;84;21635;-71
2021/01/07 03:41:42;;;;;;;15.85;9.95;;;;;;;-0.25;87.55;99537.47;2071141;84;21177;-70
2021/01/07 03:44:43;;;;;;;14.68;10.23;;;;;;;-0.25;87.55;99537.47;2070015;84;21161;-72
2021/01/07 03:47:45;;;;;;;14.18;9.28;;;;;;;-0.26;87.51;99535.80;2063044;84;21197;-70
2021/01/07 03:50:46;;;;;;;14.15;9.63;;;;;;;-0.27;87.54;99541.96;2032703;84;22495;-78
2021/01/07 03:53:48;;;;;;;13.80;9.88;;;;;;;-0.30;87.55;99539.58;2073854;84;21200;-70
2021/01/07 03:56:49;;;;;;;14.63;9.58;;;;;;;-0.31;87.62;99543.97;2073200;84;22870;-69
2021/01/07 03:59:51;;;;;;;14.78;9.85;;;;;;;-0.32;87.64;99537.55;2071100;84;21105;-75
2021/01/07 04:02:52;;;;;;;19.50;9.80;;;;;;;-0.36;87.65;99538.73;2074143;84;21117;-74
2021/01/07 04:05:54;;;;;;;15.85;9.40;;;;;;;-0.37;87.67;99537.05;2081213;84;21154;-73
2021/01/07 04:08:55;;;;;;;15.60;10.03;;;;;;;-0.38;87.71;99537.52;2054100;84;21239;-70
2021/01/07 04:11:57;;;;;;;12.98;9.08;;;;;;;-0.35;87.73;99535.16;2056560;84;21689;-70
2021/01/07 04:14:58;;;;;;;12.80;8.90;;;;;;;-0.34;87.72;99540.28;2066327;85;21141;-69
2021/01/07 04:18:00;;;;;;;13.98;10.00;;;;;;;-0.32;87.75;99542.77;2069792;84;21168;-70
2021/01/07 04:21:03;;;;;;;21.00;10.82;;;;;;;-0.31;87.75;99545.27;2065567;85;21518;-70
2021/01/07 04:24:04;;;;;;;19.82;11.50;;;;;;;-0.32;87.76;99539.67;2045457;84;21146;-70
2021/01/07 04:27:06;;;;;;;17.05;11.00;;;;;;;-0.31;87.75;99542.66;2068468;84;22013;-70
2021/01/07 04:30:10;;;;;;;19.92;11.03;;;;;;;-0.32;87.73;99538.85;2071147;84;21244;-71
2021/01/07 04:33:12;;;;;;;18.90;11.60;;;;;;;-0.31;87.74;99537.90;2070496;84;21240;-69
2021/01/07 04:36:13;;;;;;;20.70;12.10;;;;;;;-0.31;87.70;99537.90;2069795;84;21134;-70
2021/01/07 04:39:16;;;;;;;20.50;11.83;;;;;;;-0.30;87.75;99536.97;2064245;84;21238;-72
2021/01/07 04:42:17;;;;;;;20.97;12.78;;;;;;;-0.30;87.79;99540.41;2071334;84;21582;-70
2021/01/07 04:45:19;;;;;;;19.92;12.88;;;;;;;-0.32;87.74;99532.34;2046633;84;21173;-69
2021/01/07 04:48:22;;;;;;;19.55;12.88;;;;;;;-0.34;87.83;99533.77;2072674;84;21202;-70
2021/01/07 04:51:24;;;;;;;21.73;11.97;;;;;;;-0.37;87.80;99538.34;2042403;84;21165;-70
2021/01/07 04:54:25;;;;;;;18.00;10.38;;;;;;;-0.39;87.84;99536.34;2065261;84;21127;-69
2021/01/07 04:57:27;;;;;;;16.17;10.72;;;;;;;-0.38;87.84;99536.22;2074412;83;21499;-69
2021/01/07 05:00:30;;;;;;;15.20;11.25;;;;;;;-0.36;87.85;99536.13;2068308;84;21186;-69
2021/01/07 05:03:34;;;;;;;17.73;10.53;;;;;;;-0.35;87.85;99536.47;2066791;84;21101;-69
2021/01/07 05:06:35;;;;;;;17.80;11.08;;;;;;;-0.37;87.83;99541.78;2065337;84;21147;-70
2021/01/07 05:09:37;;;;;;;17.62;11.80;;;;;;;-0.36;87.83;99542.64;2065515;84;21181;-77
2021/01/07 05:12:39;;;;;;;16.85;9.85;;;;;;;-0.38;87.80;99540.61;2073069;84;21215;-70
2021/01/07 05:15:41;;;;;;;16.40;10.93;;;;;;;-0.38;87.80;99540.61;2084472;84;21716;-73
2021/01/07 05:18:43;;;;;;;15.98;10.43;;;;;;;-0.39;87.78;99542.86;2081997;84;21211;-70
2021/01/07 05:21:44;;;;;;;15.03;10.13;;;;;;;-0.37;87.81;99547.47;2084243;84;21540;-69
2021/01/07 05:24:51;;;;;;;17.92;11.78;;;;;;;-0.38;87.80;99546.64;2082747;84;21125;-68
2021/01/07 05:27:52;;;;;;;18.42;12.68;;;;;;;-0.38;87.79;99548.42;2076685;84;21149;-69
2021/01/07 05:30:54;;;;;;;17.48;11.10;;;;;;;-0.39;87.85;99550.20;2061134;84;21098;-69
2021/01/07 05:33:55;;;;;;;17.27;11.10;;;;;;;-0.41;87.81;99549.95;2057919;84;21182;-69
2021/01/07 05:36:59;;;;;;;15.50;10.05;;;;;;;-0.42;87.77;99559.55;2084939;84;21164;-69
2021/01/07 05:40:01;;;;;;;16.57;9.93;;;;;;;-0.42;87.79;99554.78;2080274;84;21186;-80
2021/01/07 05:43:10;;;;;;;15.70;8.98;;;;;;;-0.43;87.77;99556.56;2080394;84;21192;-70
2021/01/07 05:46:12;;;;;;;14.40;9.80;;;;;;;-0.44;87.79;99558.82;2083145;84;21202;-71
2021/01/07 05:49:20;;;;;;;17.52;9.93;;;;;;;-0.46;87.76;99553.70;2083553;84;21612;-75
2021/01/07 05:52:22;;;;;;;14.43;9.08;;;;;;;-0.49;87.68;99561.75;2088123;84;21159;-72
2021/01/07 05:55:24;;;;;;;16.67;10.25;;;;;;;-0.49;87.66;99552.63;2087529;84;21172;-69
2021/01/07 05:58:27;;;;;;;13.78;9.65;;;;;;;-0.50;87.66;99557.97;2072755;84;21144;-71
2021/01/07 06:01:30;;;;;;;14.68;9.30;;;;;;;-0.53;87.64;99560.31;2083401;84;21156;-70
2021/01/07 06:04:33;;;;;;;15.50;10.15;;;;;;;-0.54;87.65;99562.55;2083455;84;21596;-69
2021/01/07 06:07:37;;;;;;;21.65;10.85;;;;;;;-0.55;87.69;99562.19;2081809;84;21521;-72
2021/01/07 06:10:39;;;;;;;16.45;10.70;;;;;;;-0.55;87.67;99562.19;2082364;84;21562;-69
2021/01/07 06:13:43;;;;;;;14.93;9.70;;;;;;;-0.56;87.69;99563.14;2054296;84;21283;-70
2021/01/07 06:16:45;;;;;;;17.02;11.25;;;;;;;-0.60;87.69;99565.59;2054623;84;21110;-69
2021/01/07 06:19:52;;;;;;;18.17;11.00;;;;;;;-0.62;87.72;99564.89;2055636;85;21212;-70
2021/01/07 06:22:54;;;;;;;18.92;12.33;;;;;;;-0.61;87.79;99553.99;2029235;85;21224;-72
2021/01/07 06:26:27;;;;;;;20.92;12.68;;;;;;;-0.62;87.80;99559.68;2033059;85;21168;-77
2021/01/07 06:29:28;;;;;;;21.02;13.65;;;;;;;-0.63;87.88;99569.72;2036717;83;21167;-82
2021/01/07 06:32:30;;;;;;;24.25;14.98;;;;;;;-0.63;87.96;99573.63;2041124;85;21102;-70
2021/01/07 06:35:43;;;;;;;27.15;15.63;;;;;;;-0.64;87.92;99581.09;2057141;85;21214;-72
2021/01/07 06:38:53;;;;;;;22.93;14.03;;;;;;;-0.65;87.87;99587.70;2053182;85;21160;-72
2021/01/07 06:41:59;;;;;;;21.95;13.78;;;;;;;-0.67;87.92;99586.53;2030215;85;21167;-72
2021/01/07 06:45:07;;;;;;;21.90;13.58;;;;;;;-0.60;88.70;99590.34;2019131;86;21173;-73
2021/01/07 06:48:10;;;;;;;16.77;11.80;;;;;;;-0.35;88.80;99588.61;2019558;86;22269;-70
2021/01/07 06:51:12;;;;;;;19.32;12.20;;;;;;;-0.38;88.16;99591.44;2015893;86;21221;-81
2021/01/07 06:54:16;;;;;;;38.78;20.37;;;;;;;-0.39;87.95;99593.22;2024715;84;21236;-69
2021/01/07 06:57:17;;;;;;;25.05;13.18;;;;;;;-0.48;87.79;99599.06;2043064;85;21152;-69
2021/01/07 07:00:21;;;;;;;33.05;15.32;;;;;;;-0.54;87.77;99600.33;2024177;85;21137;-72
2021/01/07 07:03:25;;;;;;;99.70;35.13;;;;;;;-0.62;87.82;99600.07;2045944;85;21144;-71
2021/01/07 07:06:27;;;;;;;67.55;24.40;;;;;;;-0.66;87.86;99609.03;2052791;83;21231;-70
2021/01/07 07:09:38;;;;;;;61.02;24.40;;;;;;;-0.68;88.02;99603.08;2037944;85;21153;-70
2021/01/07 07:12:42;;;;;;;38.92;19.98;;;;;;;-0.70;88.02;99614.93;2032463;86;21170;-69
2021/01/07 07:15:44;;;;;;;41.05;26.68;;;;;;;-0.68;88.08;99613.50;2013053;85;21176;-74
2021/01/07 07:18:46;;;;;;;30.43;15.98;;;;;;;-0.68;88.03;99616.11;2026896;85;21181;-75
2021/01/07 07:21:58;;;;;;;21.95;12.93;;;;;;;-0.67;88.07;99613.88;2013297;86;21189;-75
2021/01/07 07:25:02;;;;;;;23.45;15.00;;;;;;;-0.69;88.03;99620.97;2009630;86;21569;-73
2021/01/07 07:28:05;;;;;;;21.95;13.80;;;;;;;-0.70;88.07;99617.54;2016423;86;21605;-70
2021/01/07 07:31:08;;;;;;;19.70;12.13;;;;;;;-0.71;88.05;99616.33;1995506;86;21609;-70
2021/01/07 07:34:11;;;;;;;23.77;14.43;;;;;;;-0.72;88.14;99623.31;2015213;86;21692;-70
2021/01/07 07:37:26;;;;;;;23.52;14.60;;;;;;;-0.70;88.06;99625.83;2008155;86;21209;-70
2021/01/07 07:40:36;;;;;;;15.85;9.98;;;;;;;-0.72;88.06;99624.62;2014813;86;21123;-70
2021/01/07 07:43:39;;;;;;;18.42;11.53;;;;;;;-0.72;88.12;99632.91;2012201;86;21180;-70
2021/01/07 07:46:41;;;;;;;17.12;10.93;;;;;;;-0.74;88.13;99634.30;2011052;86;21266;-77
2021/01/07 07:49:42;;;;;;;18.25;10.70;;;;;;;-0.74;88.15;99634.30;2010017;86;21225;-70
2021/01/07 07:52:44;;;;;;;19.27;11.45;;;;;;;-0.73;88.11;99642.98;1997721;86;21273;-69
2021/01/07 07:55:45;;;;;;;17.17;10.32;;;;;;;-0.70;88.19;99641.46;2019668;86;21581;-69
2021/01/07 07:58:49;;;;;;;16.85;10.72;;;;;;;-0.70;88.09;99644.06;1990739;87;21169;-73
2021/01/07 08:01:53;;;;;;;18.17;10.75;;;;;;;-0.64;88.12;99645.41;2008502;86;21147;-81
2021/01/07 08:04:55;;;;;;;18.37;10.95;;;;;;;-0.69;87.99;99639.20;2020118;86;21644;-69
2021/01/07 08:07:59;;;;;;;19.12;11.25;;;;;;;-0.65;88.03;99654.98;2013137;86;21209;-81
2021/01/07 08:11:02;;;;;;;17.02;9.85;;;;;;;-0.60;88.04;99642.47;2014016;86;21200;-69
2021/01/07 08:14:11;;;;;;;18.15;11.73;;;;;;;-0.57;87.98;99653.98;2030112;85;21797;-70
2021/01/07 08:17:18;;;;;;;16.40;10.68;;;;;;;-0.53;87.91;99652.02;2037088;84;21559;-82
2021/01/07 08:20:25;;;;;;;17.73;11.10;;;;;;;-0.49;87.95;99652.14;2024790;85;21109;-70
2021/01/07 08:23:27;;;;;;;17.35;10.63;;;;;;;-0.47;87.92;99649.80;2038335;84;21564;-74
2021/01/07 08:26:28;;;;;;;16.48;10.98;;;;;;;-0.41;87.95;99654.22;2040250;85;21209;-71
2021/01/07 08:29:34;;;;;;;17.52;11.10;;;;;;;-0.32;88.03;99653.56;2031035;84;21209;-72
2021/01/07 08:32:42;;;;;;;17.05;11.00;;;;;;;-0.23;87.88;99663.33;2019423;85;21114;-75
2021/01/07 08:35:45;;;;;;;23.25;12.70;;;;;;;-0.18;87.78;99663.84;2033899;85;21227;-74
2021/01/07 08:38:52;;;;;;;18.65;12.20;;;;;;;-0.09;87.70;99668.39;2023624;85;21149;-71
2021/01/07 08:41:57;;;;;;;19.37;11.55;;;;;;;-0.01;87.72;99664.77;2031192;85;21193;-70
2021/01/07 08:44:59;;;;;;;19.75;12.45;;;;;;;-0.02;87.50;99672.24;2033427;85;21229;-71
2021/01/07 08:48:07;;;;;;;24.12;13.22;;;;;;;-0.01;87.44;99669.98;2042372;85;21106;-70
2021/01/07 08:51:20;;;;;;;20.27;11.95;;;;;;;0.05;87.50;99665.27;2029078;84;21136;-70
2021/01/07 08:54:23;;;;;;;19.77;13.10;;;;;;;0.06;87.34;99670.39;2040868;84;21180;-83
2021/01/07 08:57:24;;;;;;;23.73;11.97;;;;;;;0.05;87.19;99667.88;1991534;85;21637;-70
2021/01/07 09:00:27;;;;;;;23.73;13.78;;;;;;;0.01;87.02;99674.28;2043744;85;21176;-86
2021/01/07 09:03:36;;;;;;;25.75;14.95;;;;;;;-0.03;87.08;99671.89;2039470;85;21182;-74
2021/01/07 09:06:38;;;;;;;24.92;14.35;;;;;;;-0.01;87.25;99670.46;2045065;84;21557;-75
2021/01/07 09:09:58;;;;;;;24.80;14.25;;;;;;;0.00;87.36;99673.45;2029911;85;21490;-73
2021/01/07 09:12:59;;;;;;;25.25;15.13;;;;;;;0.01;87.30;99672.50;2049619;85;21168;-71
2021/01/07 09:16:16;;;;;;;28.75;15.60;;;;;;;-0.02;87.19;99668.80;2074810;84;21153;-76
2021/01/07 09:19:20;;;;;;;22.87;14.28;;;;;;;-0.02;87.31;99673.55;2069511;84;21355;-76
2021/01/07 09:22:24;;;;;;;20.30;12.40;;;;;;;0.05;87.36;99673.10;2072959;84;21515;-76
2021/01/07 09:25:26;;;;;;;30.50;15.50;;;;;;;0.07;87.28;99662.09;2073275;84;21194;-75
2021/01/07 09:28:31;;;;;;;29.57;15.78;;;;;;;0.10;87.29;99661.39;2051054;84;21133;-75
2021/01/07 09:31:36;;;;;;;32.42;18.35;;;;;;;0.12;87.22;99668.64;2075443;84;21147;-76
2021/01/07 09:34:38;;;;;;;30.77;16.23;;;;;;;0.19;87.29;99667.72;2073680;84;21129;-78
2021/01/07 09:37:40;;;;;;;20.05;13.22;;;;;;;0.24;87.22;99659.56;2074021;84;21093;-71
2021/01/07 09:40:42;;;;;;;22.07;13.13;;;;;;;0.26;87.00;99666.34;2065644;84;21184;-72
2021/01/07 09:43:44;;;;;;;21.40;13.72;;;;;;;0.30;87.05;99669.07;2070579;84;21191;-72
2021/01/07 09:46:45;;;;;;;18.17;11.93;;;;;;;0.37;87.13;99663.77;2076789;84;21169;-71
2021/01/07 09:49:47;;;;;;;23.70;13.68;;;;;;;0.44;87.08;99666.27;2054275;84;21193;-71
2021/01/07 09:52:48;;;;;;;19.73;12.37;;;;;;;0.51;86.99;99659.30;2026345;85;21168;-75
2021/01/07 09:55:50;;;;;;;21.07;12.03;;;;;;;0.53;86.83;99661.33;2031209;85;21128;-76
2021/01/07 09:58:52;;;;;;;20.95;12.75;;;;;;;0.55;86.54;99665.97;2011658;85;21576;-82
2021/01/07 10:01:59;;;;;;;17.73;11.33;;;;;;;0.60;86.71;99658.16;2032974;85;21191;-72
2021/01/07 10:05:01;;;;;;;23.05;13.08;;;;;;;0.71;86.69;99666.50;2027863;85;21165;-72
2021/01/07 10:08:02;;;;;;;22.10;12.05;;;;;;;0.78;86.39;99660.33;2026276;85;21228;-78
2021/01/07 10:11:05;;;;;;;20.92;12.33;;;;;;;0.85;86.51;99658.93;2027719;85;21163;-74
2021/01/07 10:14:06;;;;;;;20.30;12.68;;;;;;;0.84;85.99;99663.30;2042145;85;21240;-71
2021/01/07 10:17:08;;;;;;;17.90;11.20;;;;;;;0.83;86.20;99659.52;2057488;84;21166;-72
2021/01/07 10:20:10;;;;;;;19.35;11.73;;;;;;;0.88;86.43;99661.31;2080768;84;21160;-73
2021/01/07 10:23:13;;;;;;;19.07;11.85;;;;;;;0.84;85.72;99661.99;2068408;84;21521;-71
2021/01/07 10:26:17;;;;;;;18.17;11.22;;;;;;;0.85;85.88;99664.98;2074746;84;21129;-78
2021/01/07 10:29:19;;;;;;;20.55;12.75;;;;;;;0.91;85.98;99662.38;2073713;83;21194;-71
2021/01/07 10:32:20;;;;;;;23.50;12.88;;;;;;;0.94;86.15;99671.77;2054904;84;21198;-71
2021/01/07 10:35:22;;;;;;;24.27;13.22;;;;;;;0.95;86.05;99666.89;2074278;84;21184;-71
2021/01/07 10:38:25;;;;;;;20.85;12.28;;;;;;;0.93;86.07;99663.11;2073877;84;21131;-73
2021/01/07 10:41:30;;;;;;;28.70;13.68;;;;;;;0.89;85.83;99672.93;2071805;84;21604;-70
2021/01/07 10:44:35;;;;;;;26.00;14.77;;;;;;;0.84;85.90;99667.22;2075116;84;21158;-82
2021/01/07 10:47:39;;;;;;;19.55;12.25;;;;;;;0.79;85.90;99657.61;2071338;84;21137;-82
2021/01/07 10:50:41;;;;;;;22.70;13.90;;;;;;;0.77;85.86;99659.50;2075029;84;21132;-71
2021/01/07 10:54:12;;;;;;;24.15;14.05;;;;;;;0.75;85.85;99660.08;2075536;84;21231;-71
2021/01/07 10:57:20;;;;;;;;;;;;;;;0.74;86.00;99658.91;2068538;84;21173;-71
2021/01/07 11:00:50;;;;;;;23.67;14.87;;;;;;;0.76;86.10;99649.16;2067708;84;20704;-72
2021/01/07 11:04:13;;;;;;;21.05;12.90;;;;;;;0.74;86.18;99659.73;2072019;84;21087;-73
2021/01/07 11:07:33;;;;;;;23.55;13.22;;;;;;;0.71;86.12;99652.13;1990316;85;21566;-71
2021/01/07 11:10:36;;;;;;;19.07;12.60;;;;;;;0.66;86.03;99651.16;2075054;84;21217;-75
2021/01/07 11:13:45;;;;;;;17.65;12.25;;;;;;;0.61;86.01;99656.37;2075961;84;21152;-72
2021/01/07 11:17:03;;;;;;;22.17;13.72;;;;;;;0.53;85.99;99653.49;2068454;84;21371;-71
2021/01/07 11:20:08;;;;;;;25.40;14.93;;;;;;;0.50;86.11;99645.89;2065498;84;21338;-72
2021/01/07 11:23:10;;;;;;;27.58;16.97;;;;;;;0.47;86.19;99650.03;2073354;84;21102;-71
2021/01/07 11:26:13;;;;;;;26.93;16.42;;;;;;;0.47;86.23;99650.03;2051869;84;21145;-74
2021/01/07 11:29:16;;;;;;;23.57;15.28;;;;;;;0.45;86.33;99648.83;2062096;84;21189;-71
2021/01/07 11:32:18;;;;;;;24.18;15.55;;;;;;;0.46;86.34;99652.30;2035221;84;21208;-71
2021/01/07 11:35:19;;;;;;;22.55;14.65;;;;;;;0.48;86.34;99646.47;2068259;84;21614;-76
2021/01/07 11:38:24;;;;;;;24.85;16.02;;;;;;;0.49;86.32;99641.63;2073544;84;21759;-75
2021/01/07 11:41:48;;;;;;;31.57;17.32;;;;;;;0.53;86.43;99640.44;2069579;84;21110;-72
2021/01/07 11:45:15;;;;;;;26.23;17.60;;;;;;;0.54;86.36;99646.04;2066298;84;21109;-71
2021/01/07 11:48:19;;;;;;;32.25;19.00;;;;;;;0.54;86.42;99640.81;2069649;84;21196;-71
2021/01/07 11:51:21;;;;;;;39.58;21.77;;;;;;;0.55;86.53;99643.30;2071470;84;21280;-75
2021/01/07 11:54:24;;;;;;;39.33;18.15;;;;;;;0.56;86.42;99642.81;2071612;84;21263;-71
2021/01/07 11:57:31;;;;;;;41.92;20.55;;;;;;;0.54;86.34;99642.95;2067211;84;21106;-69
2021/01/07 12:00:32;;;;;;;27.73;15.68;;;;;;;0.54;86.27;99638.20;2070494;84;21341;-70
2021/01/07 12:03:35;;;;;;;35.30;18.00;;;;;;;0.49;86.15;99645.55;2074304;84;21144;-68
2021/01/07 12:06:42;;;;;;;30.90;17.02;;;;;;;0.44;86.09;99647.17;2074098;84;22924;-70
2021/01/07 12:09:44;;;;;;;37.03;18.98;;;;;;;0.42;86.18;99649.92;2066415;84;21705;-71
2021/01/07 12:12:56;;;;;;;30.02;16.52;;;;;;;0.38;86.21;99645.02;2073251;84;21242;-69
2021/01/07 12:15:59;;;;;;;26.33;15.48;;;;;;;0.35;86.22;99646.08;2071991;84;21180;-70
2021/01/07 12:19:02;;;;;;;28.38;15.72;;;;;;;0.33;86.21;99648.44;2070879;84;21240;-71
2021/01/07 12:22:07;;;;;;;27.22;15.23;;;;;;;0.35;86.33;99642.64;2072066;84;21623;-70
2021/01/07 12:25:13;;;;;;;26.57;15.43;;;;;;;0.38;86.27;99649.77;2054906;84;21198;-70
2021/01/07 12:28:19;;;;;;;30.02;18.00;;;;;;;0.39;86.29;99646.67;2041890;85;21205;-72
2021/01/07 12:31:21;;;;;;;25.32;14.83;;;;;;;0.36;86.26;99650.82;2062864;84;22159;-69
2021/01/07 12:34:45;;;;;;;28.67;15.78;;;;;;;0.35;86.24;99650.48;2074924;84;21125;-72
2021/01/07 12:38:14;;;;;;;29.95;18.05;;;;;;;0.35;86.27;99656.52;2073105;84;21148;-71
2021/01/07 12:41:21;;;;;;;38.83;20.70;;;;;;;0.39;86.38;99647.50;2077206;84;21578;-70
2021/01/07 12:44:24;;;;;;;38.15;21.20;;;;;;;0.47;86.49;99646.12;2072631;84;21114;-70
2021/01/07 12:47:26;;;;;;;40.40;20.37;;;;;;;0.49;86.28;99653.38;2071479;84;21200;-71
2021/01/07 12:50:29;;;;;;;34.85;19.48;;;;;;;0.51;86.30;99651.45;2077831;83;21156;-74
2021/01/07 12:53:30;;;;;;;31.55;16.45;;;;;;;0.50;86.17;99651.94;2077639;84;21157;-70
2021/01/07 12:56:48;;;;;;;24.25;15.08;;;;;;;0.48;86.04;99650.38;2076144;84;21188;-70
2021/01/07 13:00:04;;;;;;;23.52;14.60;;;;;;;0.41;85.90;99653.94;2076372;84;21676;-77
2021/01/07 13:03:38;;;;;;;25.12;15.55;;;;;;;0.38;86.01;99656.30;2071550;84;21174;-69
2021/01/07 13:06:51;;;;;;;26.25;15.93;;;;;;;0.37;86.07;99650.73;2062617;85;21167;-70
2021/01/07 13:09:54;;;;;;;30.90;18.48;;;;;;;0.34;86.05;99656.17;2077958;84;21066;-71
2021/01/07 13:13:01;;;;;;;28.45;18.12;;;;;;;0.35;86.21;99657.83;2070329;84;21657;-69
2021/01/07 13:16:03;;;;;;;27.02;17.82;;;;;;;0.36;86.23;99658.17;2071855;84;21145;-68
2021/01/07 13:19:05;;;;;;;25.82;14.73;;;;;;;0.36;86.23;99659.95;2075428;84;21258;-70
2021/01/07 13:22:10;;;;;;;21.68;13.95;;;;;;;0.37;86.21;99664.25;2073623;84;21216;-70
2021/01/07 13:25:20;;;;;;;24.63;14.20;;;;;;;0.39;86.26;99667.56;2073468;84;21569;-70
2021/01/07 13:28:22;;;;;;;20.03;12.30;;;;;;;0.41;86.33;99663.07;2073553;84;21690;-70
2021/01/07 13:31:24;;;;;;;23.38;13.88;;;;;;;0.42;86.19;99672.11;2069817;84;21235;-70
2021/01/07 13:34:25;;;;;;;23.95;14.60;;;;;;;0.44;86.23;99674.11;2055075;84;21151;-70
2021/01/07 13:37:27;;;;;;;22.77;13.28;;;;;;;0.41;86.16;99674.81;2077038;84;21115;-70
2021/01/07 13:40:29;;;;;;;21.37;13.38;;;;;;;0.40;86.20;99670.08;2073378;83;21154;-69
2021/01/07 13:43:34;;;;;;;22.22;13.72;;;;;;;0.38;86.09;99674.56;2081150;83;21137;-69
2021/01/07 13:46:45;;;;;;;22.85;13.00;;;;;;;0.42;86.26;99681.69;2034981;85;21232;-72
2021/01/07 13:49:58;;;;;;;21.55;13.03;;;;;;;0.46;86.32;99672.70;2068712;84;21661;-73
2021/01/07 13:53:04;;;;;;;22.67;14.47;;;;;;;0.48;86.21;99679.09;2077756;84;22001;-70
2021/01/07 13:56:06;;;;;;;39.20;23.32;;;;;;;0.46;86.14;99673.18;2075476;84;21122;-70
2021/01/07 13:59:10;;;;;;;142.03;71.02;;;;;;;0.42;86.18;99674.72;2071256;84;21130;-77
2021/01/07 14:02:12;;;;;;;40.80;25.90;;;;;;;0.40;86.22;99677.08;2074320;84;21588;-70
2021/01/07 14:05:15;;;;;;;32.30;20.20;;;;;;;0.39;86.23;99678.83;2068922;84;21210;-70
2021/01/07 14:08:35;;;;;;;27.82;17.35;;;;;;;0.41;86.27;99669.11;2074812;84;21167;-74
2021/01/07 14:11:40;;;;;;;30.12;17.62;;;;;;;0.42;86.33;99679.94;2074045;84;21613;-71